sensor_id;sensor_type;location;lat;lon;timestamp;pressure;altitude;pressure_sealevel;temperature;humidity
41040;BME280;48586;50.122;18.972;2022-10-16T00:02:25;98759.50;;;15.01;64.54
41040;BME280;48586;50.122;18.972;2022-10-16T00:05:27;98766.59;;;14.95;64.85
41040;BME280;48586;50.122;18.972;2022-10-16T00:08:29;98761.78;;;14.85;65.42
41040;BME280;48586;50.122;18.972;2022-10-16T00:11:34;98765.75;;;14.83;65.19
41040;BME280;48586;50.122;18.972;2022-10-16T00:14:37;98776.09;;;14.79;65.47
41040;BME280;48586;50.122;18.972;2022-10-16T00:17:41;98774.91;;;14.75;66.04
41040;BME280;48586;50.122;18.972;2022-10-16T00:20:43;98772.13;;;14.70;66.27
41040;BME280;48586;50.122;18.972;2022-10-16T00:23:45;98772.59;;;14.67;66.38
41040;BME280;48586;50.122;18.972;2022-10-16T00:26:49;98767.81;;;14.69;66.30
41040;BME280;48586;50.122;18.972;2022-10-16T00:29:52;98773.16;;;14.69;66.43
41040;BME280;48586;50.122;18.972;2022-10-16T00:32:55;98763.19;;;14.76;66.25
41040;BME280;48586;50.122;18.972;2022-10-16T00:35:57;98768.53;;;14.88;66.33
41040;BME280;48586;50.122;18.972;2022-10-16T00:39:00;98773.78;;;14.94;66.13
41040;BME280;48586;50.122;18.972;2022-10-16T00:42:03;98772.84;;;15.01;65.71
41040;BME280;48586;50.122;18.972;2022-10-16T00:45:07;98774.81;;;15.05;65.89
41040;BME280;48586;50.122;18.972;2022-10-16T00:48:12;98776.69;;;15.05;66.05
41040;BME280;48586;50.122;18.972;2022-10-16T00:51:19;98777.38;;;15.00;66.38
41040;BME280;48586;50.122;18.972;2022-10-16T00:54:25;98771.25;;;15.00;65.87
41040;BME280;48586;50.122;18.972;2022-10-16T00:57:29;98776.78;;;14.98;66.02
41040;BME280;48586;50.122;18.972;2022-10-16T01:00:31;98776.34;;;15.01;66.40
41040;BME280;48586;50.122;18.972;2022-10-16T01:03:35;98780.97;;;15.06;66.00
41040;BME280;48586;50.122;18.972;2022-10-16T01:06:43;98782.47;;;15.13;66.42
41040;BME280;48586;50.122;18.972;2022-10-16T01:09:57;98783.63;;;15.17;66.00
41040;BME280;48586;50.122;18.972;2022-10-16T01:13:09;98788.28;;;15.22;66.05
41040;BME280;48586;50.122;18.972;2022-10-16T01:16:13;98784.81;;;15.22;65.99
41040;BME280;48586;50.122;18.972;2022-10-16T01:19:23;98782.22;;;15.27;66.02
41040;BME280;48586;50.122;18.972;2022-10-16T01:22:37;98774.56;;;15.30;65.94
41040;BME280;48586;50.122;18.972;2022-10-16T01:25:55;98783.59;;;15.29;65.91
41040;BME280;48586;50.122;18.972;2022-10-16T01:29:07;98783.28;;;15.26;66.41
41040;BME280;48586;50.122;18.972;2022-10-16T01:32:14;98777.59;;;15.22;66.00
41040;BME280;48586;50.122;18.972;2022-10-16T01:35:22;98779.22;;;15.23;65.88
41040;BME280;48586;50.122;18.972;2022-10-16T01:38:30;98777.69;;;15.27;66.10
41040;BME280;48586;50.122;18.972;2022-10-16T01:41:39;98782.22;;;15.27;65.72
41040;BME280;48586;50.122;18.972;2022-10-16T01:44:45;98780.38;;;15.27;66.16
41040;BME280;48586;50.122;18.972;2022-10-16T01:47:51;98786.28;;;15.29;65.93
41040;BME280;48586;50.122;18.972;2022-10-16T01:51:02;98787.66;;;15.32;66.04
41040;BME280;48586;50.122;18.972;2022-10-16T01:54:07;98776.75;;;15.33;66.05
41040;BME280;48586;50.122;18.972;2022-10-16T01:57:11;98784.19;;;15.31;65.68
41040;BME280;48586;50.122;18.972;2022-10-16T02:00:17;98788.94;;;15.29;66.20
41040;BME280;48586;50.122;18.972;2022-10-16T02:03:22;98791.63;;;15.29;65.90
41040;BME280;48586;50.122;18.972;2022-10-16T02:06:24;98799.31;;;15.26;66.09
41040;BME280;48586;50.122;18.972;2022-10-16T02:09:26;98795.22;;;15.23;65.98
41040;BME280;48586;50.122;18.972;2022-10-16T02:12:31;98807.53;;;15.24;65.95
41040;BME280;48586;50.122;18.972;2022-10-16T02:15:35;98805.81;;;15.18;66.28
41040;BME280;48586;50.122;18.972;2022-10-16T02:18:38;98813.22;;;15.16;66.03
41040;BME280;48586;50.122;18.972;2022-10-16T02:21:44;98817.41;;;15.12;66.19
41040;BME280;48586;50.122;18.972;2022-10-16T02:24:52;98826.91;;;15.08;66.40
41040;BME280;48586;50.122;18.972;2022-10-16T02:27:58;98821.47;;;15.03;66.47
41040;BME280;48586;50.122;18.972;2022-10-16T02:31:06;98817.63;;;14.99;66.44
41040;BME280;48586;50.122;18.972;2022-10-16T02:34:12;98818.34;;;14.94;66.52
41040;BME280;48586;50.122;18.972;2022-10-16T02:37:16;98821.59;;;14.96;66.62
41040;BME280;48586;50.122;18.972;2022-10-16T02:40:20;98821.81;;;14.94;66.47
41040;BME280;48586;50.122;18.972;2022-10-16T02:43:24;98817.78;;;14.92;66.35
41040;BME280;48586;50.122;18.972;2022-10-16T02:46:28;98815.16;;;14.85;66.22
41040;BME280;48586;50.122;18.972;2022-10-16T02:49:30;98813.19;;;14.81;66.48
41040;BME280;48586;50.122;18.972;2022-10-16T02:52:33;98813.53;;;14.72;66.68
41040;BME280;48586;50.122;18.972;2022-10-16T02:55:35;98812.03;;;14.65;66.58
41040;BME280;48586;50.122;18.972;2022-10-16T02:58:37;98824.66;;;14.58;67.01
41040;BME280;48586;50.122;18.972;2022-10-16T03:01:40;98823.13;;;14.50;66.65
41040;BME280;48586;50.122;18.972;2022-10-16T03:04:42;98824.75;;;14.39;67.21
41040;BME280;48586;50.122;18.972;2022-10-16T03:07:44;98832.69;;;14.28;67.28
41040;BME280;48586;50.122;18.972;2022-10-16T03:10:46;98830.09;;;14.21;67.41
41040;BME280;48586;50.122;18.972;2022-10-16T03:13:49;98828.50;;;14.20;67.91
41040;BME280;48586;50.122;18.972;2022-10-16T03:16:53;98835.44;;;14.21;67.66
41040;BME280;48586;50.122;18.972;2022-10-16T03:19:55;98830.91;;;14.21;67.81
41040;BME280;48586;50.122;18.972;2022-10-16T03:22:57;98835.69;;;14.19;67.82
41040;BME280;48586;50.122;18.972;2022-10-16T03:25:59;98829.09;;;14.22;67.90
41040;BME280;48586;50.122;18.972;2022-10-16T03:29:01;98832.34;;;14.24;67.62
41040;BME280;48586;50.122;18.972;2022-10-16T03:32:05;98839.66;;;14.29;67.53
41040;BME280;48586;50.122;18.972;2022-10-16T03:35:07;98835.59;;;14.26;67.92
41040;BME280;48586;50.122;18.972;2022-10-16T03:38:10;98840.47;;;14.29;67.37
41040;BME280;48586;50.122;18.972;2022-10-16T03:41:12;98843.38;;;14.28;67.16
41040;BME280;48586;50.122;18.972;2022-10-16T03:44:14;98842.56;;;14.27;67.17
41040;BME280;48586;50.122;18.972;2022-10-16T03:47:17;98843.81;;;14.25;67.24
41040;BME280;48586;50.122;18.972;2022-10-16T03:50:22;98844.03;;;14.23;67.62
41040;BME280;48586;50.122;18.972;2022-10-16T03:53:23;98843.13;;;14.29;67.75
41040;BME280;48586;50.122;18.972;2022-10-16T03:56:25;98842.56;;;14.27;67.19
41040;BME280;48586;50.122;18.972;2022-10-16T03:59:27;98844.34;;;14.15;67.45
41040;BME280;48586;50.122;18.972;2022-10-16T04:02:30;98850.59;;;13.90;67.41
41040;BME280;48586;50.122;18.972;2022-10-16T04:05:32;98852.88;;;13.75;67.91
41040;BME280;48586;50.122;18.972;2022-10-16T04:08:34;98857.44;;;13.68;67.90
41040;BME280;48586;50.122;18.972;2022-10-16T04:11:37;98855.22;;;13.65;68.08
41040;BME280;48586;50.122;18.972;2022-10-16T04:14:39;98856.41;;;13.69;68.51
41040;BME280;48586;50.122;18.972;2022-10-16T04:17:42;98856.78;;;13.73;68.28
41040;BME280;48586;50.122;18.972;2022-10-16T04:20:44;98859.56;;;13.78;68.67
41040;BME280;48586;50.122;18.972;2022-10-16T04:23:46;98855.00;;;13.85;68.74
41040;BME280;48586;50.122;18.972;2022-10-16T04:26:47;98850.59;;;13.90;68.69
41040;BME280;48586;50.122;18.972;2022-10-16T04:29:49;98847.63;;;13.99;68.76
41040;BME280;48586;50.122;18.972;2022-10-16T04:32:52;98842.25;;;14.05;68.29
41040;BME280;48586;50.122;18.972;2022-10-16T04:35:57;98847.94;;;14.09;68.19
41040;BME280;48586;50.122;18.972;2022-10-16T04:38:59;98856.94;;;14.08;68.19
41040;BME280;48586;50.122;18.972;2022-10-16T04:42:01;98849.75;;;14.08;68.38
41040;BME280;48586;50.122;18.972;2022-10-16T04:45:04;98848.94;;;14.08;68.24
41040;BME280;48586;50.122;18.972;2022-10-16T04:48:07;98857.41;;;14.05;68.00
41040;BME280;48586;50.122;18.972;2022-10-16T04:51:09;98854.59;;;14.00;67.83
41040;BME280;48586;50.122;18.972;2022-10-16T04:54:11;98857.78;;;13.90;68.13
41040;BME280;48586;50.122;18.972;2022-10-16T04:57:13;98865.28;;;13.81;68.34
41040;BME280;48586;50.122;18.972;2022-10-16T05:00:15;98862.78;;;13.68;68.45
41040;BME280;48586;50.122;18.972;2022-10-16T05:03:18;98884.03;;;13.50;68.18
41040;BME280;48586;50.122;18.972;2022-10-16T05:06:20;98877.78;;;13.19;68.72
41040;BME280;48586;50.122;18.972;2022-10-16T05:09:22;98882.63;;;13.04;68.84
41040;BME280;48586;50.122;18.972;2022-10-16T05:12:24;98882.31;;;12.93;69.07
41040;BME280;48586;50.122;18.972;2022-10-16T05:15:26;98875.78;;;12.89;69.41
41040;BME280;48586;50.122;18.972;2022-10-16T05:18:30;98878.88;;;12.86;69.56
41040;BME280;48586;50.122;18.972;2022-10-16T05:21:32;98882.19;;;12.82;69.70
41040;BME280;48586;50.122;18.972;2022-10-16T05:24:34;98884.44;;;12.85;70.05
41040;BME280;48586;50.122;18.972;2022-10-16T05:27:35;98883.78;;;12.89;69.79
41040;BME280;48586;50.122;18.972;2022-10-16T05:30:37;98892.94;;;12.93;69.43
41040;BME280;48586;50.122;18.972;2022-10-16T05:33:41;98887.84;;;12.92;69.78
41040;BME280;48586;50.122;18.972;2022-10-16T05:36:45;98891.38;;;12.86;69.94
41040;BME280;48586;50.122;18.972;2022-10-16T05:39:46;98894.25;;;12.84;69.88
41040;BME280;48586;50.122;18.972;2022-10-16T05:42:48;98909.59;;;12.82;69.66
41040;BME280;48586;50.122;18.972;2022-10-16T05:45:54;98900.59;;;12.83;69.83
41040;BME280;48586;50.122;18.972;2022-10-16T05:48:57;98917.97;;;12.86;70.06
41040;BME280;48586;50.122;18.972;2022-10-16T05:51:59;98918.34;;;12.89;70.14
41040;BME280;48586;50.122;18.972;2022-10-16T05:55:01;98921.78;;;12.97;70.10
41040;BME280;48586;50.122;18.972;2022-10-16T05:58:02;98916.41;;;13.03;70.30
41040;BME280;48586;50.122;18.972;2022-10-16T06:01:06;98922.28;;;13.12;70.10
41040;BME280;48586;50.122;18.972;2022-10-16T06:04:09;98922.59;;;13.22;70.50
41040;BME280;48586;50.122;18.972;2022-10-16T06:07:11;98924.31;;;13.35;70.13
41040;BME280;48586;50.122;18.972;2022-10-16T06:10:13;98939.53;;;13.53;70.34
41040;BME280;48586;50.122;18.972;2022-10-16T06:13:16;98934.84;;;13.73;70.09
41040;BME280;48586;50.122;18.972;2022-10-16T06:16:18;98947.56;;;13.89;70.18
41040;BME280;48586;50.122;18.972;2022-10-16T06:19:21;98946.19;;;14.05;69.90
41040;BME280;48586;50.122;18.972;2022-10-16T06:22:24;98942.53;;;14.18;69.72
41040;BME280;48586;50.122;18.972;2022-10-16T06:25:26;98962.94;;;14.42;69.84
41040;BME280;48586;50.122;18.972;2022-10-16T06:28:28;98964.75;;;14.60;69.41
41040;BME280;48586;50.122;18.972;2022-10-16T06:31:30;98968.63;;;14.76;68.95
41040;BME280;48586;50.122;18.972;2022-10-16T06:34:35;98970.34;;;14.89;68.42
41040;BME280;48586;50.122;18.972;2022-10-16T06:37:37;98976.06;;;15.04;68.41
41040;BME280;48586;50.122;18.972;2022-10-16T06:40:39;98976.00;;;15.23;68.19
41040;BME280;48586;50.122;18.972;2022-10-16T06:43:41;98979.03;;;15.50;67.96
41040;BME280;48586;50.122;18.972;2022-10-16T06:46:45;98973.81;;;15.78;67.26
41040;BME280;48586;50.122;18.972;2022-10-16T06:49:49;98980.97;;;16.01;66.85
41040;BME280;48586;50.122;18.972;2022-10-16T06:52:50;98973.19;;;16.23;66.11
41040;BME280;48586;50.122;18.972;2022-10-16T06:55:52;98978.78;;;16.50;65.47
41040;BME280;48586;50.122;18.972;2022-10-16T06:58:54;98974.09;;;16.69;64.75
41040;BME280;48586;50.122;18.972;2022-10-16T07:01:56;98984.34;;;16.89;64.33
41040;BME280;48586;50.122;18.972;2022-10-16T07:04:59;98969.00;;;17.13;63.78
41040;BME280;48586;50.122;18.972;2022-10-16T07:08:01;98969.47;;;17.27;63.15
41040;BME280;48586;50.122;18.972;2022-10-16T07:11:07;98970.88;;;17.29;62.76
41040;BME280;48586;50.122;18.972;2022-10-16T07:14:14;98975.81;;;17.54;62.05
41040;BME280;48586;50.122;18.972;2022-10-16T07:17:17;98982.28;;;17.75;61.64
41040;BME280;48586;50.122;18.972;2022-10-16T07:20:20;98989.47;;;17.91;61.02
41040;BME280;48586;50.122;18.972;2022-10-16T07:23:22;98993.34;;;18.01;60.75
41040;BME280;48586;50.122;18.972;2022-10-16T07:26:26;98995.84;;;18.24;60.53
41040;BME280;48586;50.122;18.972;2022-10-16T07:29:28;98996.34;;;18.43;60.30
41040;BME280;48586;50.122;18.972;2022-10-16T07:32:31;98994.53;;;18.49;59.49
41040;BME280;48586;50.122;18.972;2022-10-16T07:35:34;98992.47;;;18.56;58.83
41040;BME280;48586;50.122;18.972;2022-10-16T07:38:36;98992.38;;;18.45;58.76
41040;BME280;48586;50.122;18.972;2022-10-16T07:41:38;99000.91;;;18.42;58.86
41040;BME280;48586;50.122;18.972;2022-10-16T07:44:40;98994.47;;;18.43;58.66
41040;BME280;48586;50.122;18.972;2022-10-16T07:47:42;99005.41;;;18.59;58.87
41040;BME280;48586;50.122;18.972;2022-10-16T07:50:45;99004.59;;;18.58;58.36
41040;BME280;48586;50.122;18.972;2022-10-16T07:53:48;99005.94;;;18.61;58.40
41040;BME280;48586;50.122;18.972;2022-10-16T07:56:49;99012.38;;;18.60;58.28
41040;BME280;48586;50.122;18.972;2022-10-16T07:59:51;99005.75;;;18.67;58.32
41040;BME280;48586;50.122;18.972;2022-10-16T08:02:54;99000.13;;;18.69;58.33
41040;BME280;48586;50.122;18.972;2022-10-16T08:05:58;99003.19;;;18.78;58.21
41040;BME280;48586;50.122;18.972;2022-10-16T08:09:00;99016.81;;;18.98;58.19
41040;BME280;48586;50.122;18.972;2022-10-16T08:12:03;99008.50;;;19.00;57.56
41040;BME280;48586;50.122;18.972;2022-10-16T08:15:07;99019.56;;;19.03;57.36
41040;BME280;48586;50.122;18.972;2022-10-16T08:18:09;99016.88;;;19.03;57.36
41040;BME280;48586;50.122;18.972;2022-10-16T08:21:14;99004.47;;;18.97;57.08
41040;BME280;48586;50.122;18.972;2022-10-16T08:24:16;99011.16;;;18.94;56.52
41040;BME280;48586;50.122;18.972;2022-10-16T08:27:19;99004.81;;;19.06;57.39
41040;BME280;48586;50.122;18.972;2022-10-16T08:30:22;99009.84;;;19.24;57.24
41040;BME280;48586;50.122;18.972;2022-10-16T08:33:25;99012.19;;;19.15;56.41
41040;BME280;48586;50.122;18.972;2022-10-16T08:36:28;99017.09;;;19.24;56.15
41040;BME280;48586;50.122;18.972;2022-10-16T08:39:30;99017.41;;;19.27;55.90
41040;BME280;48586;50.122;18.972;2022-10-16T08:42:44;99018.63;;;19.47;56.02
41040;BME280;48586;50.122;18.972;2022-10-16T08:46:01;99017.69;;;19.63;55.26
41040;BME280;48586;50.122;18.972;2022-10-16T08:49:11;99024.25;;;19.82;55.42
41040;BME280;48586;50.122;18.972;2022-10-16T08:52:15;99025.31;;;20.13;54.66
41040;BME280;48586;50.122;18.972;2022-10-16T08:55:31;99020.91;;;20.55;52.79
41040;BME280;48586;50.122;18.972;2022-10-16T08:58:34;99015.88;;;20.79;54.08
41040;BME280;48586;50.122;18.972;2022-10-16T09:01:38;99018.06;;;20.87;52.65
41040;BME280;48586;50.122;18.972;2022-10-16T09:04:58;99033.75;;;21.05;52.31
41040;BME280;48586;50.122;18.972;2022-10-16T09:08:12;99028.66;;;21.24;52.59
41040;BME280;48586;50.122;18.972;2022-10-16T09:11:21;99025.44;;;21.53;51.86
41040;BME280;48586;50.122;18.972;2022-10-16T09:14:38;99021.63;;;21.89;49.36
41040;BME280;48586;50.122;18.972;2022-10-16T09:17:50;99023.81;;;21.92;47.23
41040;BME280;48586;50.122;18.972;2022-10-16T09:21:00;99022.75;;;21.78;49.91
41040;BME280;48586;50.122;18.972;2022-10-16T09:24:10;99028.94;;;21.84;48.77
41040;BME280;48586;50.122;18.972;2022-10-16T09:27:14;99029.47;;;21.96;50.86
41040;BME280;48586;50.122;18.972;2022-10-16T09:30:18;99033.44;;;22.24;49.20
41040;BME280;48586;50.122;18.972;2022-10-16T09:33:24;99032.31;;;22.40;47.48
41040;BME280;48586;50.122;18.972;2022-10-16T09:36:28;99031.72;;;22.59;47.52
41040;BME280;48586;50.122;18.972;2022-10-16T09:39:44;99050.72;;;22.93;45.18
41040;BME280;48586;50.122;18.972;2022-10-16T09:42:46;99054.75;;;23.01;46.31
41040;BME280;48586;50.122;18.972;2022-10-16T09:45:59;99043.81;;;23.21;44.14
41040;BME280;48586;50.122;18.972;2022-10-16T09:49:04;99056.50;;;23.26;45.66
41040;BME280;48586;50.122;18.972;2022-10-16T09:52:12;99050.47;;;23.39;44.00
41040;BME280;48586;50.122;18.972;2022-10-16T09:55:17;99048.19;;;23.56;45.19
41040;BME280;48586;50.122;18.972;2022-10-16T09:58:21;99046.63;;;23.50;43.76
41040;BME280;48586;50.122;18.972;2022-10-16T10:01:29;99056.19;;;23.37;43.71
41040;BME280;48586;50.122;18.972;2022-10-16T10:04:38;99050.63;;;23.53;42.65
41040;BME280;48586;50.122;18.972;2022-10-16T10:07:43;99052.63;;;23.42;44.71
41040;BME280;48586;50.122;18.972;2022-10-16T10:10:48;99053.94;;;23.44;45.51
41040;BME280;48586;50.122;18.972;2022-10-16T10:13:50;99051.84;;;23.36;45.44
41040;BME280;48586;50.122;18.972;2022-10-16T10:17:02;99052.19;;;23.25;45.70
41040;BME280;48586;50.122;18.972;2022-10-16T10:20:21;99054.59;;;23.26;44.40
41040;BME280;48586;50.122;18.972;2022-10-16T10:23:25;99051.16;;;23.10;45.38
41040;BME280;48586;50.122;18.972;2022-10-16T10:26:31;99056.41;;;22.91;45.57
41040;BME280;48586;50.122;18.972;2022-10-16T10:29:45;99058.28;;;22.96;45.76
41040;BME280;48586;50.122;18.972;2022-10-16T10:33:07;99057.78;;;22.89;45.66
41040;BME280;48586;50.122;18.972;2022-10-16T10:36:25;99058.56;;;22.94;45.85
41040;BME280;48586;50.122;18.972;2022-10-16T10:39:31;99063.22;;;22.84;46.15
41040;BME280;48586;50.122;18.972;2022-10-16T10:42:41;99072.00;;;22.55;45.96
41040;BME280;48586;50.122;18.972;2022-10-16T10:45:47;99064.72;;;22.35;46.78
41040;BME280;48586;50.122;18.972;2022-10-16T10:49:02;99073.41;;;22.22;46.36
41040;BME280;48586;50.122;18.972;2022-10-16T10:52:20;99062.13;;;22.00;47.27
41040;BME280;48586;50.122;18.972;2022-10-16T10:55:36;99081.81;;;22.00;47.23
41040;BME280;48586;50.122;18.972;2022-10-16T10:59:01;99066.16;;;21.92;46.48
41040;BME280;48586;50.122;18.972;2022-10-16T11:02:14;99059.94;;;21.71;46.62
41040;BME280;48586;50.122;18.972;2022-10-16T11:05:31;99049.19;;;21.91;47.32
41040;BME280;48586;50.122;18.972;2022-10-16T11:08:36;99052.16;;;21.95;47.12
41040;BME280;48586;50.122;18.972;2022-10-16T11:11:42;99047.28;;;21.92;47.05
41040;BME280;48586;50.122;18.972;2022-10-16T11:14:51;99050.22;;;22.01;46.95
41040;BME280;48586;50.122;18.972;2022-10-16T11:18:04;99050.22;;;22.01;47.09
41040;BME280;48586;50.122;18.972;2022-10-16T11:21:10;99050.53;;;21.99;47.49
41040;BME280;48586;50.122;18.972;2022-10-16T11:24:19;99059.94;;;22.02;46.63
41040;BME280;48586;50.122;18.972;2022-10-16T11:27:36;99055.59;;;22.11;45.97
41040;BME280;48586;50.122;18.972;2022-10-16T11:30:44;99056.16;;;22.13;47.30
41040;BME280;48586;50.122;18.972;2022-10-16T11:33:54;99061.25;;;22.19;47.28
41040;BME280;48586;50.122;18.972;2022-10-16T11:37:02;99056.91;;;22.34;47.10
41040;BME280;48586;50.122;18.972;2022-10-16T11:40:19;99049.63;;;22.34;45.92
41040;BME280;48586;50.122;18.972;2022-10-16T11:43:25;99061.19;;;22.40;47.33
41040;BME280;48586;50.122;18.972;2022-10-16T11:46:31;99058.78;;;22.33;46.75
41040;BME280;48586;50.122;18.972;2022-10-16T11:49:36;99050.44;;;22.30;46.71
41040;BME280;48586;50.122;18.972;2022-10-16T11:52:39;99052.88;;;22.16;46.47
41040;BME280;48586;50.122;18.972;2022-10-16T11:55:44;99046.72;;;21.90;46.72
41040;BME280;48586;50.122;18.972;2022-10-16T11:58:53;99045.13;;;21.84;47.30
41040;BME280;48586;50.122;18.972;2022-10-16T12:02:09;99052.69;;;21.87;47.75
41040;BME280;48586;50.122;18.972;2022-10-16T12:05:24;99047.50;;;22.21;48.00
41040;BME280;48586;50.122;18.972;2022-10-16T12:08:26;99050.84;;;22.67;47.28
41040;BME280;48586;50.122;18.972;2022-10-16T12:11:35;99046.66;;;22.96;45.79
41040;BME280;48586;50.122;18.972;2022-10-16T12:14:38;99052.25;;;23.09;45.62
41040;BME280;48586;50.122;18.972;2022-10-16T12:17:42;99065.13;;;23.33;45.70
41040;BME280;48586;50.122;18.972;2022-10-16T12:20:54;99070.13;;;23.55;44.94
41040;BME280;48586;50.122;18.972;2022-10-16T12:23:59;99065.66;;;23.69;44.14
41040;BME280;48586;50.122;18.972;2022-10-16T12:27:03;99076.19;;;23.71;45.63
41040;BME280;48586;50.122;18.972;2022-10-16T12:30:06;99070.66;;;23.52;45.68
41040;BME280;48586;50.122;18.972;2022-10-16T12:33:20;99078.38;;;23.29;44.94
41040;BME280;48586;50.122;18.972;2022-10-16T12:36:27;99089.84;;;23.06;45.94
41040;BME280;48586;50.122;18.972;2022-10-16T12:39:30;99086.41;;;22.95;46.42
41040;BME280;48586;50.122;18.972;2022-10-16T12:42:34;99085.75;;;23.13;45.55
41040;BME280;48586;50.122;18.972;2022-10-16T12:45:36;99083.63;;;23.10;46.26
41040;BME280;48586;50.122;18.972;2022-10-16T12:48:41;99078.84;;;22.92;45.98
41040;BME280;48586;50.122;18.972;2022-10-16T12:51:43;99084.25;;;22.92;46.71
41040;BME280;48586;50.122;18.972;2022-10-16T12:54:46;99082.91;;;22.89;47.01
41040;BME280;48586;50.122;18.972;2022-10-16T12:58:00;99087.03;;;22.77;46.38
41040;BME280;48586;50.122;18.972;2022-10-16T13:01:11;99094.41;;;22.61;46.20
41040;BME280;48586;50.122;18.972;2022-10-16T13:04:48;99096.03;;;22.41;46.97
41040;BME280;48586;50.122;18.972;2022-10-16T13:08:03;99090.94;;;22.25;47.02
41040;BME280;48586;50.122;18.972;2022-10-16T13:11:14;99103.13;;;22.17;47.77
41040;BME280;48586;50.122;18.972;2022-10-16T13:14:32;99096.63;;;22.23;47.05
41040;BME280;48586;50.122;18.972;2022-10-16T13:17:46;99100.13;;;22.18;47.67
41040;BME280;48586;50.122;18.972;2022-10-16T13:20:59;99107.19;;;22.04;47.79
41040;BME280;48586;50.122;18.972;2022-10-16T13:24:15;99109.09;;;22.04;47.80
41040;BME280;48586;50.122;18.972;2022-10-16T13:27:28;99107.47;;;21.92;47.79
41040;BME280;48586;50.122;18.972;2022-10-16T13:30:36;99113.94;;;21.91;47.98
41040;BME280;48586;50.122;18.972;2022-10-16T13:33:42;99112.59;;;21.89;47.83
41040;BME280;48586;50.122;18.972;2022-10-16T13:36:51;99112.59;;;21.79;48.20
41040;BME280;48586;50.122;18.972;2022-10-16T13:40:04;99114.75;;;21.87;48.76
41040;BME280;48586;50.122;18.972;2022-10-16T13:43:10;99118.25;;;21.92;48.41
41040;BME280;48586;50.122;18.972;2022-10-16T13:46:13;99112.03;;;21.97;48.44
41040;BME280;48586;50.122;18.972;2022-10-16T13:49:17;99104.44;;;22.19;48.39
41040;BME280;48586;50.122;18.972;2022-10-16T13:52:21;99106.28;;;22.44;47.27
41040;BME280;48586;50.122;18.972;2022-10-16T13:55:24;99102.78;;;22.44;47.50
41040;BME280;48586;50.122;18.972;2022-10-16T13:58:26;99097.69;;;22.32;47.55
41040;BME280;48586;50.122;18.972;2022-10-16T14:01:29;99094.19;;;22.27;47.63
41040;BME280;48586;50.122;18.972;2022-10-16T14:04:33;99089.34;;;22.18;47.77
41040;BME280;48586;50.122;18.972;2022-10-16T14:07:37;99077.75;;;22.13;48.04
41040;BME280;48586;50.122;18.972;2022-10-16T14:10:39;99091.53;;;22.01;47.96
41040;BME280;48586;50.122;18.972;2022-10-16T14:13:44;99102.84;;;21.98;47.90
41040;BME280;48586;50.122;18.972;2022-10-16T14:16:47;99123.13;;;21.90;47.91
41040;BME280;48586;50.122;18.972;2022-10-16T14:19:52;99135.78;;;21.85;47.62
41040;BME280;48586;50.122;18.972;2022-10-16T14:23:02;99127.13;;;21.67;48.09
41040;BME280;48586;50.122;18.972;2022-10-16T14:26:16;99133.31;;;21.63;48.40
41040;BME280;48586;50.122;18.972;2022-10-16T14:29:19;99124.69;;;21.66;48.53
41040;BME280;48586;50.122;18.972;2022-10-16T14:32:23;99127.97;;;21.78;48.26
41040;BME280;48586;50.122;18.972;2022-10-16T14:35:28;99127.44;;;21.86;48.47
41040;BME280;48586;50.122;18.972;2022-10-16T14:38:33;99128.78;;;21.99;48.44
41040;BME280;48586;50.122;18.972;2022-10-16T14:41:41;99127.97;;;21.99;48.72
41040;BME280;48586;50.122;18.972;2022-10-16T14:44:46;99131.75;;;21.98;48.45
41040;BME280;48586;50.122;18.972;2022-10-16T14:47:51;99143.91;;;21.95;48.78
41040;BME280;48586;50.122;18.972;2022-10-16T14:50:55;99133.63;;;21.97;48.56
41040;BME280;48586;50.122;18.972;2022-10-16T14:53:58;99129.59;;;21.94;48.78
41040;BME280;48586;50.122;18.972;2022-10-16T14:57:00;99135.25;;;21.83;49.26
41040;BME280;48586;50.122;18.972;2022-10-16T15:00:02;99140.91;;;21.76;49.48
41040;BME280;48586;50.122;18.972;2022-10-16T15:03:04;99144.16;;;21.73;49.32
41040;BME280;48586;50.122;18.972;2022-10-16T15:06:09;99146.59;;;21.75;49.45
41040;BME280;48586;50.122;18.972;2022-10-16T15:09:13;99142.00;;;21.75;49.46
41040;BME280;48586;50.122;18.972;2022-10-16T15:12:15;99146.56;;;21.64;49.64
41040;BME280;48586;50.122;18.972;2022-10-16T15:15:25;99150.31;;;21.58;49.78
41040;BME280;48586;50.122;18.972;2022-10-16T15:18:28;99147.03;;;21.46;50.23
41040;BME280;48586;50.122;18.972;2022-10-16T15:21:31;99151.91;;;21.39;50.46
41040;BME280;48586;50.122;18.972;2022-10-16T15:24:34;99155.91;;;21.26;50.63
41040;BME280;48586;50.122;18.972;2022-10-16T15:27:36;99157.75;;;21.15;50.56
41040;BME280;48586;50.122;18.972;2022-10-16T15:30:41;99147.19;;;21.04;50.86
41040;BME280;48586;50.122;18.972;2022-10-16T15:33:43;99149.31;;;20.91;51.12
41040;BME280;48586;50.122;18.972;2022-10-16T15:36:48;99152.47;;;20.83;51.41
41040;BME280;48586;50.122;18.972;2022-10-16T15:39:51;99159.16;;;20.76;51.48
41040;BME280;48586;50.122;18.972;2022-10-16T15:42:53;99155.34;;;20.66;51.57
41040;BME280;48586;50.122;18.972;2022-10-16T15:45:59;99156.94;;;20.62;51.91
41040;BME280;48586;50.122;18.972;2022-10-16T15:49:02;99153.94;;;20.54;51.97
41040;BME280;48586;50.122;18.972;2022-10-16T15:52:04;99165.16;;;20.40;52.36
41040;BME280;48586;50.122;18.972;2022-10-16T15:55:08;99171.03;;;20.32;52.71
41040;BME280;48586;50.122;18.972;2022-10-16T15:58:10;99173.66;;;20.22;53.02
41040;BME280;48586;50.122;18.972;2022-10-16T16:01:12;99181.63;;;20.12;53.33
41040;BME280;48586;50.122;18.972;2022-10-16T16:04:14;99187.41;;;19.99;53.65
41040;BME280;48586;50.122;18.972;2022-10-16T16:07:17;99193.53;;;19.89;54.08
41040;BME280;48586;50.122;18.972;2022-10-16T16:10:20;99198.81;;;19.79;54.23